createdAt,value
2019-05-18T00:02:05.656Z,96695.50
2019-05-18T00:04:34.158Z,96688.96
2019-05-18T00:07:02.733Z,96696.52
2019-05-18T00:09:31.332Z,96696.17
2019-05-18T00:11:59.976Z,96691.77
2019-05-18T00:14:28.422Z,96695.27
2019-05-18T00:16:56.798Z,96692.00
2019-05-18T00:19:25.262Z,96690.54
2019-05-18T00:21:53.723Z,96698.42
2019-05-18T00:24:22.097Z,96700.67
2019-05-18T00:26:50.398Z,96692.80
2019-05-18T00:29:18.883Z,96691.89
2019-05-18T00:31:47.338Z,96697.17
2019-05-18T00:34:15.735Z,96695.38
2019-05-18T00:36:44.170Z,96698.75
2019-05-18T00:39:12.494Z,96692.43
2019-05-18T00:41:40.814Z,96697.84
2019-05-18T00:44:09.207Z,96688.39
2019-05-18T00:46:37.592Z,96690.31
2019-05-18T00:49:06.161Z,96687.48
2019-05-18T00:51:34.540Z,96690.30
2019-05-18T00:54:02.917Z,96687.59
2019-05-18T00:56:31.228Z,96686.59
2019-05-18T00:58:59.725Z,96687.61
2019-05-18T01:01:28.029Z,96682.99
2019-05-18T01:03:56.344Z,96681.62
2019-05-18T01:06:24.717Z,96683.76
2019-05-18T01:08:53.157Z,96681.05
2019-05-18T01:11:21.533Z,96685.36
2019-05-18T01:13:50.062Z,96682.88
2019-05-18T01:16:18.452Z,96675.22
2019-05-18T01:18:46.819Z,96680.97
2019-05-18T01:21:15.217Z,96679.95
2019-05-18T01:23:43.505Z,96683.33
2019-05-18T01:26:11.985Z,96678.92
2019-05-18T01:28:40.430Z,96677.01
2019-05-18T01:31:08.748Z,96674.87
2019-05-18T01:33:37.184Z,96679.48
2019-05-18T01:36:05.523Z,96672.05
2019-05-18T01:38:33.888Z,96670.71
2019-05-18T01:41:02.358Z,96667.11
2019-05-18T01:43:30.698Z,96665.20
2019-05-18T01:45:59.036Z,96668.46
2019-05-18T01:48:27.326Z,96666.22
2019-05-18T01:50:55.809Z,96667.55
2019-05-18T01:53:24.284Z,96670.59
2019-05-18T01:55:52.921Z,96669.23
2019-05-18T01:58:21.284Z,96663.94
2019-05-18T02:00:49.610Z,96666.53
2019-05-18T02:03:17.915Z,96657.86
2019-05-18T02:05:46.315Z,96656.97
2019-05-18T02:08:14.677Z,96661.02
2019-05-18T02:10:43.323Z,96668.91
2019-05-18T02:13:11.790Z,96667.43
2019-05-18T02:15:40.238Z,96669.70
2019-05-18T02:18:08.581Z,96667.98
2019-05-18T02:20:36.904Z,96666.20
2019-05-18T02:23:05.238Z,96673.50
2019-05-18T02:25:33.608Z,96669.89
2019-05-18T02:28:02.628Z,96663.48
2019-05-18T02:30:30.998Z,96669.77
2019-05-18T02:32:59.456Z,96668.41
2019-05-18T02:35:28.138Z,96662.91
2019-05-18T02:37:58.161Z,96660.55
2019-05-18T02:40:26.538Z,96659.17
2019-05-18T02:42:54.948Z,96658.48
2019-05-18T02:45:23.244Z,96666.83
2019-05-18T02:47:51.788Z,96664.56
2019-05-18T02:50:20.276Z,96667.70
2019-05-18T02:52:48.608Z,96665.66
2019-05-18T02:55:17.140Z,96659.23
2019-05-18T02:57:45.548Z,96661.94
2019-05-18T03:00:14.743Z,96653.48
2019-05-18T03:02:43.147Z,96647.16
2019-05-18T03:05:11.547Z,96656.15
2019-05-18T03:07:39.931Z,96652.98
2019-05-18T03:10:08.821Z,96659.61
2019-05-18T03:12:37.337Z,96650.03
2019-05-18T03:15:07.238Z,96647.42
2019-05-18T03:17:35.659Z,96644.62
2019-05-18T03:20:05.536Z,96640.55
2019-05-18T03:22:33.820Z,96637.06
2019-05-18T03:25:02.252Z,96641.77
2019-05-18T03:27:30.813Z,96645.13
2019-05-18T03:29:59.232Z,96639.35
2019-05-18T03:32:27.965Z,96645.54
2019-05-18T03:34:56.507Z,96646.42
2019-05-18T03:37:24.813Z,96643.86
2019-05-18T03:39:53.415Z,96642.61
2019-05-18T03:42:21.747Z,96643.27
2019-05-18T03:44:50.112Z,96644.28
2019-05-18T03:47:18.420Z,96650.61
2019-05-18T03:49:46.814Z,96653.86
2019-05-18T03:52:15.367Z,96643.82
2019-05-18T03:54:43.765Z,96646.95
2019-05-18T03:57:12.296Z,96645.91
2019-05-18T03:59:43.870Z,96644.44
2019-05-18T04:02:12.192Z,96640.63
2019-05-18T04:04:40.588Z,96640.61
2019-05-18T04:07:08.954Z,96648.80
2019-05-18T04:09:37.462Z,96647.78
2019-05-18T04:12:05.818Z,96649.59
2019-05-18T04:14:34.316Z,96648.24
2019-05-18T04:17:02.696Z,96641.63
2019-05-18T04:19:45.460Z,96646.83
2019-05-18T04:22:01.143Z,96656.13
2019-05-18T04:24:29.453Z,96660.18
2019-05-18T04:26:57.874Z,96655.11
2019-05-18T04:29:26.164Z,96653.63
2019-05-18T04:31:54.517Z,96657.90
2019-05-18T04:34:22.832Z,96659.80
2019-05-18T04:36:51.451Z,96662.27
2019-05-18T04:39:19.819Z,96662.03
2019-05-18T04:41:48.121Z,96669.94
2019-05-18T04:44:16.484Z,96673.80
2019-05-18T04:46:44.949Z,96674.69
2019-05-18T04:49:13.380Z,96682.88
2019-05-18T04:51:41.711Z,96685.24
2019-05-18T04:54:10.076Z,96683.13
2019-05-18T04:56:42.152Z,96676.23
2019-05-18T04:59:08.654Z,96677.97
2019-05-18T05:01:36.961Z,96669.13
2019-05-18T05:04:05.599Z,96670.86
2019-05-18T05:06:33.941Z,96672.02
2019-05-18T05:09:02.249Z,96664.14
2019-05-18T05:11:30.593Z,96663.03
2019-05-18T05:13:58.976Z,96670.05
2019-05-18T05:16:27.404Z,96668.96
2019-05-18T05:18:55.708Z,96671.03
2019-05-18T05:21:25.068Z,96667.70
2019-05-18T05:23:53.370Z,96674.03
2019-05-18T05:26:21.856Z,96672.38
2019-05-18T05:28:50.578Z,96670.48
2019-05-18T05:31:19.022Z,96670.37
2019-05-18T05:33:47.605Z,96681.40
2019-05-18T05:36:15.998Z,96675.97
2019-05-18T05:38:44.403Z,96673.38
2019-05-18T05:41:16.643Z,96680.83
2019-05-18T05:43:44.982Z,96681.95
2019-05-18T05:46:13.281Z,96683.83
2019-05-18T05:48:41.799Z,96681.45
2019-05-18T05:51:10.668Z,96672.51
2019-05-18T05:53:39.008Z,96676.22
2019-05-18T05:56:07.384Z,96675.27
2019-05-18T05:58:35.957Z,96684.42
2019-05-18T06:01:04.260Z,96681.52
2019-05-18T06:03:32.896Z,96686.20
2019-05-18T06:06:01.226Z,96687.38
2019-05-18T06:08:29.573Z,96685.75
2019-05-18T06:10:57.925Z,96682.56
2019-05-18T06:13:26.438Z,96682.74
2019-05-18T06:15:55.078Z,96680.12
2019-05-18T06:18:23.583Z,96681.29
2019-05-18T06:20:52.254Z,96683.73
2019-05-18T06:23:20.701Z,96683.23
2019-05-18T06:25:49.098Z,96681.92
2019-05-18T06:28:17.480Z,96685.29
2019-05-18T06:30:45.824Z,96688.16
2019-05-18T06:33:14.530Z,96689.08
2019-05-18T06:35:42.839Z,96683.38
2019-05-18T06:38:14.003Z,96685.14
2019-05-18T06:40:42.341Z,96686.98
2019-05-18T06:43:10.925Z,96689.70
2019-05-18T06:45:39.317Z,96688.42
2019-05-18T06:48:07.695Z,96683.38
2019-05-18T06:50:36.099Z,96609.87
2019-05-18T06:53:04.543Z,96685.06
2019-05-18T06:55:33.082Z,96684.91
2019-05-18T06:58:02.117Z,96689.61
2019-05-18T07:00:30.499Z,96682.03
2019-05-18T07:02:58.845Z,96689.69
2019-05-18T07:05:27.315Z,96693.83
2019-05-18T07:07:55.779Z,96687.70
2019-05-18T07:10:24.210Z,96692.19
2019-05-18T07:12:52.805Z,96690.66
2019-05-18T07:15:21.255Z,96695.33
2019-05-18T07:17:49.597Z,96692.28
2019-05-18T07:20:19.099Z,96691.64
2019-05-18T07:22:47.426Z,96685.34
2019-05-18T07:25:15.907Z,96690.89
2019-05-18T07:27:44.447Z,96694.90
2019-05-18T07:30:13.193Z,96690.45
2019-05-18T07:32:41.576Z,96691.36
2019-05-18T07:35:10.240Z,96516.76
2019-05-18T07:37:38.594Z,96687.66
2019-05-18T07:40:08.910Z,96683.88
2019-05-18T07:42:37.330Z,96683.70
2019-05-18T07:45:09.212Z,96682.98
2019-05-18T07:47:37.568Z,96684.86
2019-05-18T07:50:07.500Z,96685.13
2019-05-18T07:52:35.995Z,96682.03
2019-05-18T07:55:05.910Z,96684.27
2019-05-18T07:57:34.263Z,96689.96
2019-05-18T08:00:02.779Z,96686.58
2019-05-18T08:02:31.174Z,96685.44
2019-05-18T08:04:59.640Z,96680.53
2019-05-18T08:07:28.082Z,96674.96
2019-05-18T08:09:56.528Z,96680.97
2019-05-18T08:12:24.954Z,96684.25
2019-05-18T08:14:59.433Z,96679.92
2019-05-18T08:17:29.442Z,96686.22
2019-05-18T08:19:57.830Z,96679.22
2019-05-18T08:22:26.158Z,96678.23
2019-05-18T08:24:54.655Z,96677.66
2019-05-18T08:27:24.625Z,96672.17
2019-05-18T08:29:52.953Z,96671.31
2019-05-18T08:32:21.767Z,96659.64
2019-05-18T08:34:50.217Z,96654.47
2019-05-18T08:37:18.758Z,96657.07
2019-05-18T08:39:47.213Z,96660.38
2019-05-18T08:42:15.696Z,96655.54
2019-05-18T08:44:44.101Z,96657.11
2019-05-18T08:47:12.395Z,96650.91
2019-05-18T08:49:41.299Z,96659.46
2019-05-18T08:52:09.699Z,96655.30
2019-05-18T08:54:38.069Z,96659.50
2019-05-18T08:57:06.387Z,96656.95
2019-05-18T08:59:35.009Z,96656.59
2019-05-18T09:02:05.209Z,96659.39
2019-05-18T09:04:34.655Z,96653.86
2019-05-18T09:07:02.975Z,96656.99
2019-05-18T09:09:32.179Z,96654.12
2019-05-18T09:12:00.617Z,96657.59
2019-05-18T09:14:28.996Z,96658.24
2019-05-18T09:16:57.548Z,96652.06
2019-05-18T09:19:25.976Z,96655.84
2019-05-18T09:21:55.189Z,96655.27
2019-05-18T09:24:23.581Z,96650.61
2019-05-18T09:26:52.271Z,96653.20
2019-05-18T09:29:20.751Z,96648.63
2019-05-18T09:31:49.407Z,96648.22
2019-05-18T09:34:17.750Z,96646.09
2019-05-18T09:36:46.204Z,96644.12
2019-05-18T09:39:14.539Z,96650.17
2019-05-18T09:41:43.228Z,96655.27
2019-05-18T09:44:11.712Z,96652.34
2019-05-18T09:46:40.426Z,96646.87
2019-05-18T09:49:08.870Z,96648.45
2019-05-18T09:51:37.223Z,96644.34
2019-05-18T09:54:05.611Z,96639.44
2019-05-18T09:56:33.948Z,96642.75
2019-05-18T09:59:02.415Z,96642.38
2019-05-18T10:01:30.887Z,96636.48
2019-05-18T10:03:59.185Z,96632.37
2019-05-18T10:06:31.445Z,96627.89
2019-05-18T10:08:59.510Z,96631.03
2019-05-18T10:11:28.192Z,96631.39
2019-05-18T10:13:56.683Z,96631.39
2019-05-18T10:16:25.451Z,96635.86
2019-05-18T10:18:53.851Z,96639.72
2019-05-18T10:21:23.430Z,96633.98
2019-05-18T10:23:52.017Z,96633.73
2019-05-18T10:26:20.589Z,96627.84
2019-05-18T10:28:51.336Z,96634.92
2019-05-18T10:31:19.750Z,96633.54
2019-05-18T10:33:48.315Z,96626.49
2019-05-18T10:36:16.701Z,96627.16
2019-05-18T10:38:45.203Z,96624.54
2019-05-18T10:41:13.673Z,96623.97
2019-05-18T10:43:46.870Z,96615.94
2019-05-18T10:46:14.957Z,96614.86
2019-05-18T10:48:43.474Z,96613.97
2019-05-18T10:51:11.846Z,96610.13
2019-05-18T10:53:40.335Z,96612.67
2019-05-18T10:56:09.263Z,96609.86
2019-05-18T10:58:37.783Z,96612.06
2019-05-18T11:01:06.270Z,96608.67
2019-05-18T11:03:34.669Z,96602.98
2019-05-18T11:06:03.500Z,96593.81
2019-05-18T11:08:32.223Z,96597.64
2019-05-18T11:11:00.591Z,96596.32
2019-05-18T11:13:29.146Z,96600.44
2019-05-18T11:15:57.437Z,96591.55
2019-05-18T11:18:26.046Z,96587.68
2019-05-18T11:20:54.426Z,96594.33
2019-05-18T11:23:23.556Z,96590.24
2019-05-18T11:25:52.110Z,96589.06
2019-05-18T11:28:21.138Z,96586.77
2019-05-18T11:30:50.175Z,96579.63
2019-05-18T11:33:20.055Z,96578.79
2019-05-18T11:35:48.954Z,96581.72
2019-05-18T11:38:18.937Z,96567.22
2019-05-18T11:40:47.778Z,96570.59
2019-05-18T11:43:16.917Z,96569.09
2019-05-18T11:45:46.152Z,96569.17
2019-05-18T11:48:15.439Z,96568.34
2019-05-18T11:50:44.501Z,96569.71
2019-05-18T11:53:13.760Z,96568.97
2019-05-18T11:55:42.556Z,96559.80
2019-05-18T11:58:10.925Z,96561.64
2019-05-18T12:00:40.353Z,96555.37
2019-05-18T12:03:09.730Z,96554.46
2019-05-18T12:05:38.094Z,96546.52
2019-05-18T12:08:06.801Z,96546.53
2019-05-18T12:10:35.723Z,96547.58
2019-05-18T12:13:05.223Z,96544.28
2019-05-18T12:15:34.525Z,96540.46
2019-05-18T12:18:04.169Z,96538.58
2019-05-18T12:20:33.365Z,96537.32
2019-05-18T12:23:02.141Z,96539.64
2019-05-18T12:25:30.634Z,96539.41
2019-05-18T12:27:59.033Z,96541.27
2019-05-18T12:30:28.234Z,96530.53
2019-05-18T12:32:56.642Z,96532.95
2019-05-18T12:35:25.014Z,96531.20
2019-05-18T12:37:54.248Z,96532.23
2019-05-18T12:40:23.132Z,96527.33
2019-05-18T12:42:51.626Z,96528.69
2019-05-18T12:45:20.239Z,96525.17
2019-05-18T12:47:48.784Z,96525.59
2019-05-18T12:50:22.285Z,96520.88
2019-05-18T12:52:50.882Z,96524.39
2019-05-18T12:55:20.272Z,96523.16
2019-05-18T12:57:48.751Z,96523.97
2019-05-18T13:00:19.094Z,96521.46
2019-05-18T13:02:47.491Z,96521.73
2019-05-18T13:05:15.982Z,96518.30
2019-05-18T13:07:44.417Z,96518.08
2019-05-18T13:10:14.385Z,96512.72
2019-05-18T13:12:42.859Z,96510.33
2019-05-18T13:15:12.195Z,96515.84
2019-05-18T13:17:40.585Z,96522.60
2019-05-18T13:20:11.759Z,96512.30
2019-05-18T13:22:40.358Z,96510.05
2019-05-18T13:25:09.546Z,96513.56
2019-05-18T13:27:39.761Z,96518.87
2019-05-18T13:30:13.010Z,96551.89
2019-05-18T13:32:41.512Z,96558.05
2019-05-18T13:35:12.024Z,96542.42
2019-05-18T13:37:40.512Z,96551.27
2019-05-18T13:40:09.554Z,96565.47
2019-05-18T13:42:37.855Z,96587.91
2019-05-18T13:45:07.298Z,96607.36
2019-05-18T13:47:35.720Z,96616.65
2019-05-18T13:50:04.903Z,96625.03
2019-05-18T13:52:33.756Z,96627.14
2019-05-18T13:55:04.764Z,96631.45
2019-05-18T13:57:32.257Z,96628.06
2019-05-18T14:00:06.323Z,96635.22
2019-05-18T14:02:34.854Z,96638.98
2019-05-18T14:05:03.551Z,96642.59
2019-05-18T14:07:32.267Z,96644.50
2019-05-18T14:10:04.747Z,96640.50
2019-05-18T14:12:33.337Z,96638.80
2019-05-18T14:15:02.178Z,96639.20
2019-05-18T14:17:32.245Z,96642.71
2019-05-18T14:20:00.754Z,96647.72
2019-05-18T14:22:29.457Z,96647.81
2019-05-18T14:24:59.550Z,96654.59
2019-05-18T14:27:30.360Z,96658.50
2019-05-18T14:29:58.781Z,96656.52
2019-05-18T14:32:27.797Z,96650.40
2019-05-18T14:34:58.053Z,96656.98
2019-05-18T14:37:27.017Z,96661.34
2019-05-18T14:39:57.825Z,96659.64
2019-05-18T14:42:29.208Z,96657.02
2019-05-18T14:44:57.686Z,96644.88
2019-05-18T14:47:28.264Z,96651.70
2019-05-18T14:49:56.771Z,96645.20
2019-05-18T14:52:25.676Z,96648.34
2019-05-18T14:54:54.462Z,96638.48
2019-05-18T14:57:25.681Z,96640.37
2019-05-18T14:59:53.174Z,96633.47
2019-05-18T15:02:21.528Z,96629.81
2019-05-18T15:04:53.104Z,96610.73
2019-05-18T15:07:20.934Z,96595.19
2019-05-18T15:09:49.376Z,96591.87
2019-05-18T15:12:18.361Z,96575.68
2019-05-18T15:14:47.539Z,96568.81
2019-05-18T15:17:15.935Z,96553.72
2019-05-18T15:19:44.435Z,96548.59
2019-05-18T15:22:13.085Z,96551.91
2019-05-18T15:24:42.260Z,96547.05
2019-05-18T15:27:10.630Z,96548.50
2019-05-18T15:29:39.002Z,96546.05
2019-05-18T15:32:07.432Z,96545.75
2019-05-18T15:34:35.796Z,96550.04
2019-05-18T15:37:04.408Z,96546.85
2019-05-18T15:39:32.790Z,96548.84
2019-05-18T15:42:01.147Z,96538.27
2019-05-18T15:44:29.564Z,96531.67
2019-05-18T15:46:58.072Z,96531.14
2019-05-18T15:49:26.428Z,96527.70
2019-05-18T15:51:54.926Z,96519.80
2019-05-18T15:54:23.291Z,96510.92
2019-05-18T15:56:51.829Z,96498.82
2019-05-18T15:59:20.357Z,96486.75
2019-05-18T16:01:48.770Z,96516.48
2019-05-18T16:04:17.156Z,96519.77
2019-05-18T16:06:45.581Z,96510.63
2019-05-18T16:09:13.894Z,96522.30
2019-05-18T16:11:42.379Z,96509.83
2019-05-18T16:14:10.740Z,96524.77
2019-05-18T16:16:39.630Z,96516.20
2019-05-18T16:19:09.666Z,96508.44
2019-05-18T16:21:38.222Z,96511.23
2019-05-18T16:24:06.745Z,96515.48
2019-05-18T16:26:36.807Z,96516.04
2019-05-18T16:29:05.257Z,96515.40
2019-05-18T16:31:33.745Z,96512.61
2019-05-18T16:34:02.217Z,96519.48
2019-05-18T16:36:30.665Z,96517.72
2019-05-18T16:38:59.040Z,96513.58
2019-05-18T16:41:27.475Z,96515.98
2019-05-18T16:43:55.850Z,96516.16
2019-05-18T16:46:24.293Z,96519.99
2019-05-18T16:48:52.639Z,96522.02
2019-05-18T16:51:21.135Z,96530.52
2019-05-18T16:53:50.517Z,96535.36
2019-05-18T16:56:18.924Z,96542.86
2019-05-18T16:58:47.762Z,96540.20
2019-05-18T17:01:16.063Z,96536.06
2019-05-18T17:03:44.478Z,96537.36
2019-05-18T17:06:16.172Z,96544.24
2019-05-18T17:08:43.015Z,96553.58
2019-05-18T17:11:11.747Z,96557.54
2019-05-18T17:13:41.648Z,96563.66
2019-05-18T17:16:10.062Z,96567.56
2019-05-18T17:18:38.568Z,96570.50
2019-05-18T17:21:07.022Z,96575.79
2019-05-18T17:23:35.654Z,96577.27
2019-05-18T17:26:05.526Z,96583.60
2019-05-18T17:28:33.893Z,96573.58
2019-05-18T17:31:02.286Z,96577.15
2019-05-18T17:33:30.672Z,96575.36
2019-05-18T17:36:00.534Z,96572.86
2019-05-18T17:38:29.867Z,96575.36
2019-05-18T17:40:58.249Z,96577.59
2019-05-18T17:43:26.569Z,96585.60
2019-05-18T17:45:54.959Z,96587.34
2019-05-18T17:48:23.454Z,96589.67
2019-05-18T17:50:51.834Z,96588.48
2019-05-18T17:53:21.365Z,96592.45
2019-05-18T17:55:50.121Z,96593.84
2019-05-18T17:58:18.682Z,96593.13
2019-05-18T18:00:47.082Z,96602.92
2019-05-18T18:03:15.402Z,96605.50
2019-05-18T18:05:43.744Z,96612.66
2019-05-18T18:09:04.303Z,96620.41
2019-05-18T18:11:32.645Z,96615.13
2019-05-18T18:14:01.120Z,96619.41
2019-05-18T18:16:29.542Z,96626.42
2019-05-18T18:18:57.978Z,96628.67
2019-05-18T18:21:26.401Z,96629.38
2019-05-18T18:23:55.364Z,96626.95
2019-05-18T18:26:24.085Z,96632.40
2019-05-18T18:28:52.414Z,96629.31
2019-05-18T18:31:20.844Z,96627.30
2019-05-18T18:33:49.226Z,96628.26
2019-05-18T18:36:17.761Z,96623.31
2019-05-18T18:38:46.292Z,96623.34
2019-05-18T18:41:16.235Z,96615.06
2019-05-18T18:43:44.714Z,96613.30
2019-05-18T18:46:13.298Z,96616.31
2019-05-18T18:48:41.760Z,96616.23
2019-05-18T18:51:10.183Z,96619.02
2019-05-18T18:53:38.501Z,96617.23
2019-05-18T18:56:06.839Z,96615.03
2019-05-18T18:58:35.728Z,96618.18
2019-05-18T19:01:04.140Z,96622.88
2019-05-18T19:03:32.527Z,96631.59
2019-05-18T19:06:00.957Z,96616.45
2019-05-18T19:08:29.333Z,96622.13
2019-05-18T19:10:57.748Z,96623.75
2019-05-18T19:13:26.551Z,96627.98
2019-05-18T19:15:55.038Z,96624.13
2019-05-18T19:18:23.445Z,96629.05
2019-05-18T19:20:51.800Z,96563.44
2019-05-18T19:23:20.122Z,96632.19
2019-05-18T19:25:48.492Z,96628.80
2019-05-18T19:28:16.863Z,96638.88
2019-05-18T19:30:45.163Z,96639.06
2019-05-18T19:33:13.512Z,96640.20
2019-05-18T19:35:41.969Z,96646.11
2019-05-18T19:38:10.375Z,96639.41
2019-05-18T19:40:38.797Z,96643.83
2019-05-18T19:43:07.450Z,96641.03
2019-05-18T19:45:35.891Z,96640.37
2019-05-18T19:48:04.353Z,96645.94
2019-05-18T19:50:33.009Z,96641.30
2019-05-18T19:53:01.712Z,96640.16
2019-05-18T19:55:30.109Z,96636.30
2019-05-18T19:58:08.445Z,96635.21
2019-05-18T20:00:28.836Z,96633.98
2019-05-18T20:02:57.233Z,96639.40
2019-05-18T20:05:25.591Z,96648.63
2019-05-18T20:07:54.290Z,96652.70
2019-05-18T20:10:22.971Z,96648.94
2019-05-18T20:12:51.297Z,96649.00
2019-05-18T20:15:19.715Z,96648.03
2019-05-18T20:17:48.025Z,96649.27
2019-05-18T20:20:16.898Z,96651.62
2019-05-18T20:22:45.331Z,96653.30
2019-05-18T20:25:15.367Z,96654.55
2019-05-18T20:27:43.660Z,96654.06
2019-05-18T20:30:12.452Z,96655.13
2019-05-18T20:32:40.820Z,96647.22
2019-05-18T20:35:09.344Z,96661.78
2019-05-18T20:37:37.819Z,96660.11
2019-05-18T20:40:06.699Z,96658.78
2019-05-18T20:42:37.555Z,96660.50
2019-05-18T20:45:06.063Z,96655.16
2019-05-18T20:47:34.462Z,96658.66
2019-05-18T20:50:03.411Z,96662.41
2019-05-18T20:52:31.695Z,96662.55
2019-05-18T20:55:00.150Z,96655.68
2019-05-18T20:57:28.599Z,96652.87
2019-05-18T20:59:56.971Z,96649.59
2019-05-18T21:02:25.412Z,96652.08
2019-05-18T21:04:53.813Z,96648.98
2019-05-18T21:07:22.160Z,96649.09
2019-05-18T21:09:50.663Z,96650.58
2019-05-18T21:12:19.113Z,96662.10
2019-05-18T21:14:47.526Z,96656.30
2019-05-18T21:17:15.877Z,96659.70
2019-05-18T21:19:44.271Z,96665.78
2019-05-18T21:22:12.798Z,96653.83
2019-05-18T21:24:41.353Z,96655.23
2019-05-18T21:27:09.750Z,96655.73
2019-05-18T21:29:38.063Z,96656.83
2019-05-18T21:32:06.425Z,96656.42
2019-05-18T21:34:34.709Z,96669.51
2019-05-18T21:37:03.385Z,96668.64
2019-05-18T21:39:31.834Z,96676.12
2019-05-18T21:42:00.247Z,96670.34
2019-05-18T21:44:29.197Z,96681.30
2019-05-18T21:46:57.748Z,96681.97
2019-05-18T21:49:26.953Z,96690.52
2019-05-18T21:51:56.126Z,96685.47
2019-05-18T21:54:25.034Z,96691.08
2019-05-18T21:56:54.284Z,96690.08
2019-05-18T21:59:23.137Z,96692.45
2019-05-18T22:03:01.206Z,96693.47
2019-05-18T22:06:03.655Z,96690.63
2019-05-18T22:09:02.964Z,96700.00
2019-05-18T22:12:02.093Z,96698.20
2019-05-18T22:33:02.466Z,96695.38
2019-05-18T22:36:01.773Z,96687.48
2019-05-18T22:39:05.565Z,96682.52
2019-05-18T22:42:04.264Z,96676.98
2019-05-18T22:45:03.932Z,96669.44
2019-05-18T22:48:03.094Z,96667.06
2019-05-18T23:05:01.321Z,96631.44
2019-05-18T23:08:03.400Z,96629.19
2019-05-18T23:11:02.675Z,96640.27
2019-05-18T23:14:01.940Z,96635.53
2019-05-18T23:17:04.292Z,96635.27
2019-05-18T23:20:03.689Z,96619.92
2019-05-18T23:23:03.091Z,96616.39
2019-05-18T23:26:02.347Z,96619.48
2019-05-18T23:29:04.615Z,96621.28
2019-05-18T23:32:03.592Z,96616.11
2019-05-18T23:35:02.694Z,96615.19
2019-05-18T23:38:01.845Z,96614.06
2019-05-18T23:41:04.040Z,96616.32
2019-05-18T23:44:03.658Z,96621.95
2019-05-18T23:47:02.543Z,96622.37
2019-05-18T23:50:05.687Z,96620.27
2019-05-18T23:53:04.737Z,96616.42
2019-05-18T23:56:04.134Z,96605.38
2019-05-18T23:58:32.903Z,96600.88
